createdAt,value
2023-05-19T00:02:06.071Z,1.80
2023-05-19T00:05:10.461Z,2.20
2023-05-19T00:08:19.937Z,1.73
2023-05-19T00:11:23.014Z,1.80
2023-05-19T00:14:25.831Z,2.15
2023-05-19T00:17:28.980Z,2.17
2023-05-19T00:20:31.748Z,1.87
2023-05-19T00:23:34.703Z,2.10
2023-05-19T00:26:37.280Z,2.20
2023-05-19T00:29:40.433Z,2.70
2023-05-19T00:32:43.985Z,2.33
2023-05-19T00:35:46.662Z,2.73
2023-05-19T00:38:51.175Z,2.50
2023-05-19T00:41:53.906Z,2.30
2023-05-19T00:44:56.345Z,2.37
2023-05-19T00:47:59.108Z,2.45
2023-05-19T00:51:04.747Z,2.37
2023-05-19T00:54:08.646Z,2.40
2023-05-19T00:57:12.579Z,2.10
2023-05-19T01:00:18.389Z,2.80
2023-05-19T01:03:21.487Z,2.28
2023-05-19T01:06:25.688Z,2.50
2023-05-19T01:09:28.482Z,2.43
2023-05-19T01:12:31.300Z,2.65
2023-05-19T01:15:45.982Z,2.78
2023-05-19T01:19:03.960Z,2.55
2023-05-19T01:22:33.693Z,2.40
2023-05-19T01:25:51.749Z,2.80
2023-05-19T01:29:17.322Z,2.40
2023-05-19T01:32:21.276Z,2.50
2023-05-19T01:35:26.277Z,2.47
2023-05-19T01:38:30.337Z,2.80
2023-05-19T01:41:34.659Z,2.33
2023-05-19T01:44:38.062Z,2.47
2023-05-19T01:47:43.887Z,2.67
2023-05-19T01:50:47.166Z,2.58
2023-05-19T01:53:51.399Z,2.90
2023-05-19T01:56:58.052Z,3.00
2023-05-19T02:00:22.368Z,2.65
2023-05-19T02:03:43.894Z,2.60
2023-05-19T02:07:09.821Z,1.98
2023-05-19T02:10:23.015Z,2.60
2023-05-19T02:13:31.686Z,2.70
2023-05-19T02:16:36.796Z,2.67
2023-05-19T02:19:42.231Z,2.55
2023-05-19T02:22:45.959Z,2.30
2023-05-19T02:25:49.249Z,2.20
2023-05-19T02:28:51.940Z,2.20
2023-05-19T02:31:54.615Z,2.37
2023-05-19T02:34:57.355Z,2.78
2023-05-19T02:37:59.898Z,2.30
2023-05-19T02:41:03.451Z,2.43
2023-05-19T02:44:06.578Z,2.33
2023-05-19T02:47:09.385Z,2.45
2023-05-19T02:50:11.864Z,2.08
2023-05-19T02:53:14.622Z,2.30
2023-05-19T02:56:17.090Z,1.70
2023-05-19T02:59:20.096Z,1.90
2023-05-19T03:02:22.479Z,1.98
2023-05-19T03:05:25.177Z,2.62
2023-05-19T03:08:28.249Z,1.90
2023-05-19T03:11:31.067Z,2.20
2023-05-19T03:14:34.818Z,2.03
2023-05-19T03:17:37.829Z,1.58
2023-05-19T03:20:42.441Z,2.20
2023-05-19T03:23:45.060Z,2.22
2023-05-19T03:26:47.956Z,1.90
2023-05-19T03:29:53.852Z,2.25
2023-05-19T03:32:56.952Z,2.10
2023-05-19T03:35:59.909Z,2.30
2023-05-19T03:39:07.030Z,2.00
2023-05-19T03:42:10.272Z,2.13
2023-05-19T03:45:12.959Z,2.12
2023-05-19T03:48:17.082Z,2.42
2023-05-19T03:51:21.904Z,2.20
2023-05-19T03:54:26.274Z,2.00
2023-05-19T03:57:29.492Z,2.00
2023-05-19T04:00:32.363Z,1.80
2023-05-19T04:03:37.250Z,1.80
2023-05-19T04:06:41.914Z,1.67
2023-05-19T04:09:45.222Z,1.73
2023-05-19T04:12:48.176Z,1.97
2023-05-19T04:15:54.386Z,1.75
2023-05-19T04:18:57.066Z,1.92
2023-05-19T04:22:00.303Z,2.03
2023-05-19T04:25:04.600Z,1.83
2023-05-19T04:28:07.761Z,1.50
2023-05-19T04:31:12.805Z,1.62
2023-05-19T04:34:15.985Z,1.90
2023-05-19T04:37:20.073Z,1.85
2023-05-19T04:40:25.925Z,2.30
2023-05-19T04:43:31.681Z,1.60
2023-05-19T04:46:36.181Z,1.90
2023-05-19T04:49:39.185Z,1.70
2023-05-19T04:52:42.678Z,1.90
2023-05-19T04:55:47.632Z,1.60
2023-05-19T04:58:51.088Z,1.63
2023-05-19T05:01:53.686Z,1.62
2023-05-19T05:04:56.894Z,1.70
2023-05-19T05:08:03.419Z,1.62
2023-05-19T05:11:08.012Z,1.75
2023-05-19T05:14:11.372Z,1.50
2023-05-19T05:17:17.400Z,1.67
2023-05-19T05:20:20.538Z,1.70
2023-05-19T05:23:23.945Z,1.60
2023-05-19T05:26:30.986Z,1.58
2023-05-19T05:29:35.327Z,1.97
2023-05-19T05:32:38.847Z,1.70
2023-05-19T05:35:43.782Z,1.62
2023-05-19T05:38:54.258Z,1.75
2023-05-19T05:41:58.090Z,1.65
2023-05-19T05:45:00.768Z,1.60
2023-05-19T05:48:07.473Z,1.80
2023-05-19T05:51:10.433Z,1.80
2023-05-19T05:54:14.498Z,1.70
2023-05-19T05:57:17.406Z,1.60
2023-05-19T06:00:22.379Z,1.80
2023-05-19T06:03:26.075Z,1.58
2023-05-19T06:06:29.073Z,1.70
2023-05-19T06:09:32.985Z,1.45
2023-05-19T06:12:42.138Z,1.50
2023-05-19T06:15:45.122Z,1.23
2023-05-19T06:18:49.426Z,1.17
2023-05-19T06:21:52.569Z,1.40
2023-05-19T06:24:55.252Z,2.62
2023-05-19T06:27:58.138Z,1.80
2023-05-19T06:31:03.950Z,1.40
2023-05-19T06:34:10.478Z,1.37
2023-05-19T06:37:19.666Z,1.58
2023-05-19T06:40:23.364Z,1.60
2023-05-19T06:43:28.920Z,1.40
2023-05-19T06:46:32.030Z,1.47
2023-05-19T06:49:34.551Z,1.55
2023-05-19T06:52:37.764Z,1.70
2023-05-19T06:55:50.694Z,1.42
2023-05-19T06:59:01.902Z,1.67
2023-05-19T07:02:05.137Z,1.70
2023-05-19T07:05:09.363Z,1.62
2023-05-19T07:08:12.092Z,1.48
2023-05-19T07:11:15.425Z,1.58
2023-05-19T07:14:27.304Z,2.20
2023-05-19T07:17:30.441Z,1.40
2023-05-19T07:20:34.543Z,1.48
2023-05-19T07:23:37.490Z,1.75
2023-05-19T07:26:40.653Z,1.80
2023-05-19T07:29:52.051Z,1.90
2023-05-19T07:32:56.315Z,1.63
2023-05-19T07:35:59.240Z,2.10
2023-05-19T07:39:01.905Z,2.00
2023-05-19T07:42:05.081Z,1.67
2023-05-19T07:45:08.062Z,1.83
2023-05-19T07:48:11.099Z,2.27
2023-05-19T07:51:13.996Z,1.87
2023-05-19T07:54:17.090Z,2.25
2023-05-19T07:57:23.000Z,2.10
2023-05-19T08:00:26.357Z,1.92
2023-05-19T08:03:30.949Z,1.90
2023-05-19T08:06:33.708Z,2.05
2023-05-19T08:09:36.626Z,2.12
2023-05-19T08:12:39.093Z,2.03
2023-05-19T08:15:42.851Z,1.90
2023-05-19T08:18:45.403Z,1.93
2023-05-19T08:21:48.433Z,1.95
2023-05-19T08:24:51.891Z,2.05
2023-05-19T08:27:54.669Z,2.30
2023-05-19T08:30:57.195Z,2.10
2023-05-19T08:33:59.919Z,2.23
2023-05-19T08:37:03.235Z,2.50
2023-05-19T08:40:07.735Z,2.37
2023-05-19T08:43:11.343Z,2.15
2023-05-19T08:46:16.422Z,2.20
2023-05-19T08:49:25.578Z,2.10
2023-05-19T08:52:28.448Z,2.17
2023-05-19T08:55:57.678Z,2.35
2023-05-19T08:59:04.705Z,2.40
2023-05-19T09:02:11.256Z,2.28
2023-05-19T09:05:16.020Z,2.40
2023-05-19T09:08:18.681Z,2.30
2023-05-19T09:11:22.784Z,2.40
2023-05-19T09:14:25.468Z,2.30
2023-05-19T09:17:28.197Z,2.50
2023-05-19T09:20:31.059Z,2.30
2023-05-19T09:23:34.220Z,2.17
2023-05-19T09:26:41.494Z,2.17
2023-05-19T09:29:44.331Z,2.45
2023-05-19T09:32:48.132Z,2.20
2023-05-19T09:35:54.311Z,2.70
2023-05-19T09:38:57.115Z,2.10
2023-05-19T09:42:04.895Z,2.58
2023-05-19T09:45:09.351Z,2.37
2023-05-19T09:48:12.779Z,2.75
2023-05-19T09:51:15.287Z,2.70
2023-05-19T09:54:20.531Z,2.12
2023-05-19T09:57:29.832Z,2.40
2023-05-19T10:00:32.939Z,2.37
2023-05-19T10:03:36.938Z,3.22
2023-05-19T10:06:40.882Z,2.40
2023-05-19T10:09:44.936Z,2.40
2023-05-19T10:12:48.969Z,2.42
2023-05-19T10:19:01.234Z,2.55
2023-05-19T10:22:04.392Z,2.53
2023-05-19T10:25:08.605Z,3.10
2023-05-19T10:28:15.182Z,2.78
2023-05-19T10:31:21.602Z,2.78
2023-05-19T10:34:24.258Z,2.70
2023-05-19T10:37:41.876Z,3.20
2023-05-19T10:41:07.632Z,3.10
2023-05-19T10:44:23.519Z,3.00
2023-05-19T10:47:26.840Z,2.58
2023-05-19T10:50:37.965Z,2.97
2023-05-19T10:53:46.425Z,3.13
2023-05-19T10:56:49.086Z,2.97
2023-05-19T10:59:51.802Z,2.75
2023-05-19T11:02:57.621Z,2.80
2023-05-19T11:06:28.546Z,2.70
2023-05-19T11:09:39.864Z,2.97
2023-05-19T11:12:46.026Z,3.08
2023-05-19T11:15:52.003Z,2.83
2023-05-19T11:18:56.466Z,2.70
2023-05-19T11:22:12.561Z,3.17
2023-05-19T11:25:38.316Z,3.03
2023-05-19T11:28:44.474Z,3.08
2023-05-19T11:31:48.798Z,3.65
2023-05-19T11:34:51.586Z,3.33
2023-05-19T11:37:57.669Z,3.05
2023-05-19T11:41:00.824Z,3.43
2023-05-19T11:44:03.717Z,3.30
2023-05-19T11:47:06.776Z,3.15
2023-05-19T11:50:11.712Z,2.78
2023-05-19T11:53:15.461Z,3.15
2023-05-19T11:56:18.348Z,3.30
2023-05-19T11:59:30.449Z,3.30
2023-05-19T12:02:36.427Z,3.12
2023-05-19T12:05:48.396Z,3.30
2023-05-19T12:08:52.253Z,3.50
2023-05-19T12:11:55.570Z,3.47
2023-05-19T12:14:58.185Z,3.65
2023-05-19T12:18:02.577Z,3.70
2023-05-19T12:21:06.023Z,3.42
2023-05-19T12:24:09.273Z,3.67
2023-05-19T12:27:20.448Z,3.50
2023-05-19T12:30:30.088Z,3.50
2023-05-19T12:33:35.477Z,3.53
2023-05-19T12:36:38.830Z,3.40
2023-05-19T12:39:42.973Z,3.70
2023-05-19T12:42:46.608Z,3.37
2023-05-19T12:45:49.676Z,3.72
2023-05-19T12:48:52.560Z,3.80
2023-05-19T12:51:55.030Z,3.80
2023-05-19T12:55:07.958Z,3.70
2023-05-19T12:58:12.010Z,3.30
2023-05-19T13:01:19.853Z,3.60
2023-05-19T13:04:22.460Z,3.58
2023-05-19T13:07:28.149Z,3.22
2023-05-19T13:10:32.112Z,3.67
2023-05-19T13:13:35.044Z,3.30
2023-05-19T13:16:37.543Z,3.60
2023-05-19T13:19:40.673Z,3.60
2023-05-19T13:22:43.510Z,3.85
2023-05-19T13:25:46.809Z,3.83
2023-05-19T13:28:52.276Z,3.90
2023-05-19T13:31:55.568Z,3.42
2023-05-19T13:34:58.709Z,3.87
2023-05-19T13:38:11.204Z,3.50
2023-05-19T13:41:15.935Z,3.80
2023-05-19T13:44:19.739Z,4.17
2023-05-19T13:47:23.865Z,3.80
2023-05-19T13:50:26.773Z,3.90
2023-05-19T13:53:31.212Z,3.80
2023-05-19T13:56:34.019Z,4.15
2023-05-19T13:59:43.117Z,3.87
2023-05-19T14:02:58.372Z,3.80
2023-05-19T14:06:01.235Z,3.83
2023-05-19T14:09:04.170Z,3.70
2023-05-19T14:12:07.330Z,3.95
2023-05-19T14:15:11.456Z,4.43
2023-05-19T14:18:14.609Z,4.55
2023-05-19T14:21:17.035Z,4.10
2023-05-19T14:24:20.221Z,4.65
2023-05-19T14:27:23.052Z,3.70
2023-05-19T14:30:25.879Z,4.43
2023-05-19T14:33:29.725Z,3.90
2023-05-19T14:36:35.598Z,4.15
2023-05-19T14:39:45.630Z,4.07
2023-05-19T14:42:50.658Z,3.97
2023-05-19T14:45:53.223Z,4.20
2023-05-19T14:48:56.094Z,4.75
2023-05-19T14:51:58.719Z,3.97
2023-05-19T14:55:01.493Z,4.07
2023-05-19T14:58:07.894Z,4.37
2023-05-19T15:01:19.054Z,5.30
2023-05-19T15:04:21.776Z,4.68
2023-05-19T15:07:24.745Z,5.05
2023-05-19T15:10:27.113Z,4.80
2023-05-19T15:13:32.697Z,5.05
2023-05-19T15:16:38.026Z,5.20
2023-05-19T15:19:42.819Z,5.00
2023-05-19T15:22:45.342Z,4.72
2023-05-19T15:25:48.129Z,5.40
2023-05-19T15:31:56.191Z,4.80
2023-05-19T15:34:58.661Z,4.95
2023-05-19T15:38:06.163Z,5.35
2023-05-19T15:41:09.149Z,5.28
2023-05-19T15:44:11.884Z,5.22
2023-05-19T15:47:14.360Z,5.10
2023-05-19T15:50:17.149Z,5.07
2023-05-19T15:53:20.341Z,5.20
2023-05-19T15:56:23.008Z,5.65
2023-05-19T15:59:25.510Z,5.32
2023-05-19T16:02:32.306Z,5.00
2023-05-19T16:05:35.181Z,5.22
2023-05-19T16:08:38.091Z,4.97
2023-05-19T16:11:40.876Z,5.97
2023-05-19T16:14:43.257Z,6.00
2023-05-19T16:17:48.487Z,6.07
2023-05-19T16:20:51.445Z,5.78
2023-05-19T16:23:54.269Z,5.53
2023-05-19T16:26:56.700Z,5.37
2023-05-19T16:30:03.376Z,4.97
2023-05-19T16:33:09.465Z,4.93
2023-05-19T16:36:12.552Z,4.80
2023-05-19T16:39:15.435Z,4.40
2023-05-19T16:42:18.188Z,4.65
2023-05-19T16:45:20.703Z,4.95
2023-05-19T16:48:23.334Z,4.80
2023-05-19T16:51:25.871Z,4.57
2023-05-19T16:54:28.937Z,4.50
2023-05-19T16:57:31.372Z,4.53
2023-05-19T17:00:34.597Z,4.70
2023-05-19T17:03:37.442Z,4.87
2023-05-19T17:06:40.478Z,4.78
2023-05-19T17:09:46.376Z,5.18
2023-05-19T17:12:49.144Z,5.00
2023-05-19T17:15:52.765Z,5.03
2023-05-19T17:18:56.104Z,4.30
2023-05-19T17:21:58.554Z,4.60
2023-05-19T17:25:01.442Z,4.97
2023-05-19T17:28:03.969Z,5.00
2023-05-19T17:31:13.835Z,5.10
2023-05-19T17:34:16.306Z,5.00
2023-05-19T17:37:23.357Z,5.90
2023-05-19T17:40:25.998Z,6.50
2023-05-19T17:43:29.074Z,5.87
2023-05-19T17:46:34.733Z,6.05
2023-05-19T17:49:37.595Z,5.83
2023-05-19T17:52:45.018Z,5.90
2023-05-19T17:56:00.956Z,6.03
2023-05-19T17:59:03.597Z,5.30
2023-05-19T18:02:07.506Z,6.20
2023-05-19T18:05:11.003Z,6.00
2023-05-19T18:08:13.795Z,5.57
2023-05-19T18:11:20.074Z,6.20
2023-05-19T18:14:25.825Z,5.95
2023-05-19T18:17:29.557Z,5.32
2023-05-19T18:20:34.014Z,5.67
2023-05-19T18:23:37.040Z,6.00
2023-05-19T18:26:42.065Z,5.50
2023-05-19T18:29:47.506Z,6.40
2023-05-19T18:32:50.040Z,6.45
2023-05-19T18:35:52.788Z,6.50
2023-05-19T18:38:58.478Z,6.28
2023-05-19T18:42:03.348Z,7.03
2023-05-19T18:45:06.581Z,7.18
2023-05-19T18:48:09.459Z,7.20
2023-05-19T18:51:14.329Z,7.37
2023-05-19T18:54:17.153Z,6.95
2023-05-19T18:57:19.645Z,7.20
2023-05-19T19:00:26.028Z,7.00
2023-05-19T19:03:28.790Z,7.37
2023-05-19T19:06:31.876Z,7.33
2023-05-19T19:09:34.460Z,6.75
2023-05-19T19:12:38.937Z,7.55
2023-05-19T19:15:41.416Z,7.55
2023-05-19T19:18:44.233Z,7.70
2023-05-19T19:21:47.107Z,7.20
2023-05-19T19:24:49.811Z,7.68
2023-05-19T19:27:52.151Z,6.90
2023-05-19T19:30:54.799Z,7.65
2023-05-19T19:34:00.299Z,7.37
2023-05-19T19:37:03.901Z,7.87
2023-05-19T19:40:08.734Z,7.30
2023-05-19T19:43:11.725Z,7.12
2023-05-19T19:46:14.543Z,7.20
2023-05-19T19:49:17.448Z,6.97
2023-05-19T19:52:20.160Z,8.13
2023-05-19T19:55:25.153Z,7.47
2023-05-19T19:58:29.763Z,6.82
2023-05-19T20:01:33.761Z,7.43
2023-05-19T20:04:36.579Z,7.07
2023-05-19T20:07:39.014Z,6.33
2023-05-19T20:10:41.649Z,6.78
2023-05-19T20:13:44.087Z,6.72
2023-05-19T20:16:47.209Z,6.70
2023-05-19T20:19:49.657Z,6.95
2023-05-19T20:22:54.298Z,6.13
2023-05-19T20:26:10.906Z,7.25
2023-05-19T20:29:16.900Z,6.93
2023-05-19T20:32:19.365Z,6.97
2023-05-19T20:35:22.710Z,6.40
2023-05-19T20:38:25.381Z,6.80
2023-05-19T20:41:28.208Z,7.22
2023-05-19T20:44:30.859Z,6.75
2023-05-19T20:47:33.809Z,6.80
2023-05-19T20:50:39.447Z,6.57
2023-05-19T20:53:42.252Z,6.93
2023-05-19T20:56:44.728Z,7.00
2023-05-19T20:59:47.438Z,7.15
2023-05-19T21:02:49.862Z,7.43
2023-05-19T21:05:59.290Z,7.90
2023-05-19T21:09:04.943Z,7.13
2023-05-19T21:12:07.758Z,7.78
2023-05-19T21:15:10.617Z,7.68
2023-05-19T21:18:13.499Z,7.87
2023-05-19T21:21:16.020Z,7.45
2023-05-19T21:24:18.821Z,7.27
2023-05-19T21:27:21.805Z,7.12
2023-05-19T21:30:25.341Z,7.65
2023-05-19T21:33:27.869Z,8.15
2023-05-19T21:36:30.685Z,6.95
2023-05-19T21:39:33.123Z,6.80
2023-05-19T21:42:35.913Z,6.97
2023-05-19T21:45:38.716Z,7.37
2023-05-19T21:48:41.444Z,7.30
2023-05-19T21:51:43.833Z,7.50
2023-05-19T21:54:48.727Z,6.43
2023-05-19T21:57:54.049Z,7.00
2023-05-19T22:00:56.822Z,6.43
2023-05-19T22:03:59.865Z,6.43
2023-05-19T22:07:02.608Z,6.62
2023-05-19T22:10:05.864Z,6.13
2023-05-19T22:13:08.667Z,5.60
2023-05-19T22:16:11.614Z,6.40
2023-05-19T22:19:14.687Z,6.75
2023-05-19T22:22:17.411Z,6.03
2023-05-19T22:25:19.874Z,6.07
2023-05-19T22:28:22.516Z,5.62
2023-05-19T22:31:28.940Z,6.05
2023-05-19T22:34:31.673Z,5.68
2023-05-19T22:37:34.609Z,5.60
2023-05-19T22:40:37.459Z,5.50
2023-05-19T22:43:39.915Z,5.90
2023-05-19T22:46:44.529Z,6.00
2023-05-19T22:49:47.310Z,5.55
2023-05-19T22:52:50.232Z,6.65
2023-05-19T22:55:53.093Z,6.00
2023-05-19T22:58:56.249Z,5.68
2023-05-19T23:01:58.692Z,5.93
2023-05-19T23:05:01.378Z,5.90
2023-05-19T23:08:03.879Z,6.50
2023-05-19T23:11:07.273Z,5.80
2023-05-19T23:14:09.662Z,6.03
2023-05-19T23:17:12.340Z,6.72
2023-05-19T23:20:14.871Z,6.25
2023-05-19T23:23:17.691Z,6.03
2023-05-19T23:26:20.155Z,6.27
2023-05-19T23:29:23.293Z,5.93
2023-05-19T23:32:25.995Z,6.53
2023-05-19T23:35:28.971Z,6.53
2023-05-19T23:38:31.384Z,6.65
2023-05-19T23:41:34.006Z,6.20
2023-05-19T23:44:36.434Z,6.50
2023-05-19T23:47:39.332Z,6.53
2023-05-19T23:50:41.779Z,6.78
2023-05-19T23:53:46.967Z,6.12
2023-05-19T23:56:49.379Z,6.00
2023-05-19T23:59:52.688Z,6.05
